createdAt,value
2023-10-09T00:01:55.647Z,3.65
2023-10-09T00:05:29.185Z,5.75
2023-10-09T00:08:57.227Z,5.07
2023-10-09T00:12:27.109Z,4.90
2023-10-09T00:15:54.931Z,5.13
2023-10-09T00:19:22.155Z,4.07
2023-10-09T00:22:47.940Z,4.50
2023-10-09T00:26:17.867Z,3.65
2023-10-09T00:29:46.823Z,4.95
2023-10-09T00:33:12.808Z,3.33
2023-10-09T00:36:52.392Z,3.78
2023-10-09T00:40:22.036Z,4.43
2023-10-09T00:43:51.092Z,3.88
2023-10-09T00:47:28.389Z,3.20
2023-10-09T00:50:56.859Z,3.25
2023-10-09T00:54:29.262Z,4.40
2023-10-09T00:57:59.102Z,3.72
2023-10-09T01:01:29.581Z,4.60
2023-10-09T01:04:58.186Z,3.38
2023-10-09T01:08:32.267Z,3.03
2023-10-09T01:12:07.381Z,2.42
2023-10-09T01:15:45.476Z,4.60
2023-10-09T01:19:25.664Z,4.38
2023-10-09T01:22:53.134Z,4.22
2023-10-09T01:26:21.726Z,2.95
2023-10-09T01:29:48.100Z,3.10
2023-10-09T01:33:23.656Z,3.25
2023-10-09T01:36:50.527Z,6.47
2023-10-09T01:40:26.554Z,5.35
2023-10-09T01:44:02.462Z,4.95
2023-10-09T01:47:33.354Z,4.75
2023-10-09T01:50:59.794Z,4.78
2023-10-09T01:54:38.136Z,5.32
2023-10-09T01:58:07.587Z,3.25
2023-10-09T02:01:42.336Z,3.67
2023-10-09T02:05:12.026Z,4.50
2023-10-09T02:08:39.203Z,3.88
2023-10-09T02:12:05.034Z,3.25
2023-10-09T02:15:53.272Z,4.78
2023-10-09T02:19:35.537Z,5.03
2023-10-09T02:23:01.219Z,5.00
2023-10-09T02:26:34.791Z,4.72
2023-10-09T02:30:00.521Z,4.53
2023-10-09T02:33:29.261Z,3.50
2023-10-09T02:37:07.422Z,3.47
2023-10-09T02:40:34.952Z,5.15
2023-10-09T02:44:12.124Z,5.50
2023-10-09T02:47:41.609Z,3.90
2023-10-09T02:51:07.200Z,3.75
2023-10-09T02:54:43.637Z,6.53
2023-10-09T02:58:12.396Z,5.53
2023-10-09T03:01:38.889Z,3.45
2023-10-09T03:05:04.943Z,5.22
2023-10-09T03:08:31.121Z,5.18
2023-10-09T03:12:01.525Z,4.40
2023-10-09T03:15:27.363Z,4.13
2023-10-09T03:18:54.116Z,5.13
2023-10-09T03:22:20.396Z,4.88
2023-10-09T03:25:46.773Z,3.72
2023-10-09T03:29:15.649Z,3.45
2023-10-09T03:32:41.043Z,3.10
2023-10-09T03:36:08.982Z,3.58
2023-10-09T03:39:40.249Z,3.90
2023-10-09T03:43:06.432Z,4.13
2023-10-09T03:46:38.252Z,3.10
2023-10-09T03:50:22.366Z,3.80
2023-10-09T03:53:48.837Z,4.82
2023-10-09T03:57:15.907Z,4.25
2023-10-09T04:00:47.653Z,4.00
2023-10-09T04:04:16.780Z,3.67
2023-10-09T04:07:43.297Z,4.07
2023-10-09T04:11:17.391Z,2.83
2023-10-09T04:14:50.217Z,2.70
2023-10-09T04:18:20.110Z,2.45
2023-10-09T04:21:45.540Z,2.90
2023-10-09T04:25:15.964Z,2.10
2023-10-09T04:28:43.620Z,2.65
2023-10-09T04:32:19.118Z,3.00
2023-10-09T04:36:05.186Z,2.28
2023-10-09T04:39:48.176Z,2.70
2023-10-09T04:43:21.952Z,3.05
2023-10-09T04:46:45.708Z,2.35
2023-10-09T04:50:12.994Z,1.40
2023-10-09T04:53:46.076Z,1.85
2023-10-09T04:57:19.397Z,3.10
2023-10-09T05:01:13.864Z,1.98
2023-10-09T05:04:44.454Z,2.58
2023-10-09T05:08:20.546Z,2.60
2023-10-09T05:12:11.269Z,2.00
2023-10-09T05:15:47.576Z,2.42
2023-10-09T05:19:30.357Z,2.70
2023-10-09T05:22:59.703Z,3.03
2023-10-09T05:26:39.106Z,2.67
2023-10-09T05:30:14.395Z,1.63
2023-10-09T05:33:46.749Z,2.22
2023-10-09T05:37:19.302Z,2.40
2023-10-09T05:40:53.996Z,1.73
2023-10-09T05:44:31.722Z,1.58
2023-10-09T05:48:07.846Z,2.85
2023-10-09T05:51:46.113Z,2.20
2023-10-09T05:55:44.799Z,1.60
2023-10-09T05:59:31.004Z,3.28
2023-10-09T06:03:09.196Z,2.28
2023-10-09T06:06:44.676Z,1.67
2023-10-09T06:10:20.250Z,3.78
2023-10-09T06:13:47.571Z,2.38
2023-10-09T06:17:24.683Z,3.80
2023-10-09T06:21:02.528Z,2.53
2023-10-09T06:24:34.988Z,3.45
2023-10-09T06:28:03.493Z,3.73
2023-10-09T06:31:53.306Z,2.25
2023-10-09T06:35:17.970Z,3.00
2023-10-09T06:38:55.862Z,3.08
2023-10-09T06:42:45.675Z,2.80
2023-10-09T06:46:39.371Z,4.30
2023-10-09T06:54:06.988Z,3.30
2023-10-09T06:57:45.470Z,2.88
2023-10-09T07:01:23.900Z,3.53
2023-10-09T07:04:56.173Z,1.77
2023-10-09T07:08:33.407Z,3.85
2023-10-09T07:12:00.574Z,2.78
2023-10-09T07:15:43.673Z,3.80
2023-10-09T07:19:33.609Z,3.08
2023-10-09T07:23:15.099Z,3.03
2023-10-09T07:26:48.635Z,2.50
2023-10-09T07:30:28.988Z,3.92
2023-10-09T07:34:08.348Z,3.08
2023-10-09T07:37:36.724Z,2.78
2023-10-09T07:41:23.946Z,2.20
2023-10-09T07:44:54.389Z,2.05
2023-10-09T07:48:17.852Z,2.78
2023-10-09T07:51:48.317Z,2.75
2023-10-09T07:55:27.629Z,5.32
2023-10-09T07:58:53.892Z,4.28
2023-10-09T08:02:19.614Z,3.22
2023-10-09T08:05:47.615Z,3.25
2023-10-09T08:09:39.528Z,4.85
2023-10-09T08:13:27.840Z,4.43
2023-10-09T08:17:10.808Z,2.53
2023-10-09T08:21:00.456Z,3.42
2023-10-09T08:24:42.967Z,4.03
2023-10-09T08:28:21.584Z,4.88
2023-10-09T08:32:00.469Z,4.47
2023-10-09T08:35:31.234Z,3.67
2023-10-09T08:38:59.649Z,3.60
2023-10-09T08:42:30.588Z,5.50
2023-10-09T08:46:02.713Z,2.72
2023-10-09T08:49:29.604Z,4.57
2023-10-09T08:52:55.918Z,5.35
2023-10-09T08:56:23.968Z,2.55
2023-10-09T08:59:52.041Z,4.55
2023-10-09T09:03:20.086Z,3.78
2023-10-09T09:06:46.509Z,2.90
2023-10-09T09:10:22.912Z,4.45
2023-10-09T09:13:53.495Z,4.35
2023-10-09T09:17:28.974Z,3.55
2023-10-09T09:20:55.299Z,3.40
2023-10-09T09:24:28.279Z,2.97
2023-10-09T09:27:54.708Z,2.47
2023-10-09T09:31:28.426Z,3.75
2023-10-09T09:35:02.537Z,5.35
2023-10-09T09:38:30.081Z,2.08
2023-10-09T09:41:56.097Z,3.70
2023-10-09T09:45:24.847Z,5.82
2023-10-09T09:48:55.549Z,2.90
2023-10-09T09:52:26.207Z,2.05
2023-10-09T09:55:57.796Z,4.10
2023-10-09T09:59:28.860Z,5.13
2023-10-09T10:02:57.822Z,2.85
2023-10-09T10:06:27.920Z,3.30
2023-10-09T10:09:59.221Z,4.05
2023-10-09T10:14:00.697Z,2.78
2023-10-09T10:17:26.401Z,2.97
2023-10-09T10:21:07.835Z,3.20
2023-10-09T10:24:59.354Z,2.83
2023-10-09T10:28:40.958Z,2.80
2023-10-09T10:32:08.487Z,2.45
2023-10-09T10:35:46.202Z,3.67
2023-10-09T10:39:13.135Z,4.28
2023-10-09T10:42:39.385Z,3.13
2023-10-09T10:46:15.478Z,5.25
2023-10-09T10:49:42.175Z,3.83
2023-10-09T10:53:17.885Z,3.00
2023-10-09T10:56:50.644Z,2.03
2023-10-09T11:00:37.085Z,3.40
2023-10-09T11:04:14.594Z,3.47
2023-10-09T11:07:40.353Z,2.88
2023-10-09T11:11:17.205Z,5.80
2023-10-09T11:15:07.034Z,3.03
2023-10-09T11:18:32.918Z,4.03
2023-10-09T11:22:18.713Z,3.45
2023-10-09T11:25:52.233Z,3.42
2023-10-09T11:29:25.228Z,3.40
2023-10-09T11:32:51.237Z,4.43
2023-10-09T11:36:16.769Z,2.95
2023-10-09T11:39:57.871Z,3.80
2023-10-09T11:43:44.800Z,2.95
2023-10-09T11:47:23.839Z,2.65
2023-10-09T11:50:57.869Z,3.03
2023-10-09T11:54:31.627Z,2.63
2023-10-09T11:58:01.905Z,3.25
2023-10-09T12:01:37.128Z,1.98
2023-10-09T12:05:02.581Z,1.73
2023-10-09T12:08:31.443Z,1.92
2023-10-09T12:12:04.021Z,2.15
2023-10-09T12:15:38.660Z,2.55
2023-10-09T12:19:04.340Z,2.15
2023-10-09T12:22:32.247Z,3.00
2023-10-09T12:25:58.950Z,3.20
2023-10-09T12:29:25.300Z,3.63
2023-10-09T12:32:53.493Z,3.67
2023-10-09T12:36:21.714Z,4.00
2023-10-09T12:39:49.088Z,3.70
2023-10-09T12:43:16.828Z,3.80
2023-10-09T12:46:42.365Z,2.10
2023-10-09T12:50:15.103Z,2.05
2023-10-09T12:53:42.745Z,2.85
2023-10-09T12:57:15.034Z,3.30
2023-10-09T13:00:45.732Z,2.28
2023-10-09T13:04:13.029Z,2.33
2023-10-09T13:07:41.164Z,3.50
2023-10-09T13:11:12.434Z,2.47
2023-10-09T13:14:38.555Z,2.47
2023-10-09T13:18:08.354Z,2.38
2023-10-09T13:21:35.190Z,4.20
2023-10-09T13:25:05.857Z,3.20
2023-10-09T13:28:31.355Z,3.33
2023-10-09T13:31:59.924Z,2.50
2023-10-09T13:35:41.988Z,2.97
2023-10-09T13:39:23.364Z,2.13
2023-10-09T13:42:51.489Z,2.42
2023-10-09T13:46:19.062Z,2.03
2023-10-09T13:49:45.595Z,2.05
2023-10-09T13:53:13.108Z,2.05
2023-10-09T13:56:40.489Z,3.42
2023-10-09T14:00:13.728Z,2.53
2023-10-09T14:07:07.627Z,3.08
2023-10-09T14:10:35.100Z,2.33
2023-10-09T14:14:12.498Z,4.55
2023-10-09T14:17:44.073Z,2.67
2023-10-09T14:21:17.573Z,2.20
2023-10-09T14:24:46.436Z,3.00
2023-10-09T14:28:12.777Z,2.72
2023-10-09T14:31:40.624Z,5.38
2023-10-09T14:35:14.593Z,1.95
2023-10-09T14:38:40.236Z,2.50
2023-10-09T14:42:11.002Z,2.45
2023-10-09T14:45:40.251Z,3.13
2023-10-09T14:49:07.654Z,3.20
2023-10-09T14:52:39.858Z,1.95
2023-10-09T14:59:36.105Z,2.80
2023-10-09T15:03:02.175Z,2.78
2023-10-09T15:06:29.285Z,2.40
2023-10-09T15:10:02.705Z,3.30
2023-10-09T15:13:29.435Z,3.22
2023-10-09T15:16:57.684Z,3.00
2023-10-09T15:20:24.206Z,3.10
2023-10-09T15:23:50.992Z,3.38
2023-10-09T15:27:19.344Z,3.85
2023-10-09T15:30:45.098Z,4.93
2023-10-09T15:34:11.714Z,3.45
2023-10-09T15:37:37.493Z,3.03
2023-10-09T15:41:03.811Z,5.18
2023-10-09T15:44:35.184Z,5.65
2023-10-09T15:48:00.788Z,3.60
2023-10-09T15:51:26.971Z,4.18
2023-10-09T15:54:52.493Z,4.88
2023-10-09T15:58:19.593Z,4.95
2023-10-09T16:01:49.153Z,3.75
2023-10-09T16:05:18.274Z,3.72
2023-10-09T16:08:46.646Z,3.97
2023-10-09T16:12:14.449Z,5.40
2023-10-09T16:15:45.287Z,3.63
2023-10-09T16:19:14.525Z,3.50
2023-10-09T16:22:40.028Z,5.10
2023-10-09T16:26:08.435Z,6.25
2023-10-09T16:29:34.073Z,4.10
2023-10-09T16:33:01.991Z,4.32
2023-10-09T16:36:31.986Z,4.80
2023-10-09T16:39:59.602Z,5.28
2023-10-09T16:43:27.125Z,4.15
2023-10-09T16:46:55.824Z,4.13
2023-10-09T16:50:27.000Z,4.20
2023-10-09T16:53:57.253Z,3.75
2023-10-09T16:57:22.644Z,4.93
2023-10-09T17:00:49.573Z,4.03
2023-10-09T17:04:19.410Z,4.97
2023-10-09T17:07:46.280Z,6.40
2023-10-09T17:11:14.654Z,6.57
2023-10-09T17:14:40.567Z,3.72
2023-10-09T17:18:08.322Z,5.78
2023-10-09T17:21:37.587Z,3.58
2023-10-09T17:25:04.468Z,3.45
2023-10-09T17:28:32.830Z,6.25
2023-10-09T17:31:58.269Z,9.02
2023-10-09T17:35:24.428Z,4.55
2023-10-09T17:38:52.260Z,8.00
2023-10-09T17:42:18.682Z,4.63
2023-10-09T17:45:46.992Z,6.13
2023-10-09T17:49:13.234Z,7.03
2023-10-09T17:52:38.885Z,4.93
2023-10-09T17:56:06.222Z,4.88
2023-10-09T17:59:32.497Z,4.78
2023-10-09T18:03:01.108Z,3.70
2023-10-09T18:06:27.313Z,6.07
2023-10-09T18:09:53.872Z,5.30
2023-10-09T18:13:21.236Z,5.43
2023-10-09T18:16:49.260Z,4.43
2023-10-09T18:20:21.970Z,9.68
2023-10-09T18:23:49.718Z,15.77
2023-10-09T18:27:18.972Z,17.88
2023-10-09T18:30:46.200Z,9.38
2023-10-09T18:34:11.681Z,6.20
2023-10-09T18:37:41.301Z,5.32
2023-10-09T18:41:09.168Z,6.22
2023-10-09T18:44:37.835Z,5.88
2023-10-09T18:48:04.785Z,7.30
2023-10-09T18:51:31.552Z,7.55
2023-10-09T18:54:59.976Z,11.45
2023-10-09T18:58:26.203Z,11.20
2023-10-09T19:01:52.138Z,7.47
2023-10-09T19:05:18.888Z,5.13
2023-10-09T19:08:44.311Z,4.50
2023-10-09T19:12:12.903Z,6.68
2023-10-09T19:15:41.277Z,8.25
2023-10-09T19:19:09.588Z,6.32
2023-10-09T19:22:39.240Z,4.88
2023-10-09T19:26:05.428Z,5.88
2023-10-09T19:29:33.566Z,6.50
2023-10-09T19:33:01.102Z,6.15
2023-10-09T19:36:28.347Z,6.78
2023-10-09T19:39:54.328Z,6.80
2023-10-09T19:43:19.768Z,6.25
2023-10-09T19:46:49.440Z,7.03
2023-10-09T19:50:15.862Z,4.80
2023-10-09T19:53:41.765Z,5.82
2023-10-09T19:57:09.915Z,5.03
2023-10-09T20:00:36.052Z,5.68
2023-10-09T20:04:06.464Z,4.95
2023-10-09T20:07:33.688Z,5.93
2023-10-09T20:10:59.406Z,4.88
2023-10-09T20:14:25.267Z,6.80
2023-10-09T20:17:50.807Z,5.80
2023-10-09T20:21:20.320Z,8.27
2023-10-09T20:24:45.796Z,6.03
2023-10-09T20:28:14.601Z,6.13
2023-10-09T20:31:40.871Z,5.28
2023-10-09T20:35:13.108Z,4.95
2023-10-09T20:38:45.843Z,5.93
2023-10-09T20:42:12.880Z,6.10
2023-10-09T20:45:41.851Z,4.45
2023-10-09T20:49:07.716Z,6.40
2023-10-09T20:52:33.666Z,6.75
2023-10-09T20:56:02.157Z,6.78
2023-10-09T20:59:27.844Z,6.90
2023-10-09T21:02:55.108Z,8.13
2023-10-09T21:06:22.490Z,6.05
2023-10-09T21:09:49.341Z,5.90
2023-10-09T21:13:19.271Z,7.03
2023-10-09T21:16:45.847Z,5.55
2023-10-09T21:20:17.633Z,8.40
2023-10-09T21:23:44.128Z,5.25
2023-10-09T21:27:10.006Z,6.03
2023-10-09T21:30:42.004Z,5.05
2023-10-09T21:34:07.607Z,5.97
2023-10-09T21:37:34.937Z,6.18
2023-10-09T21:41:02.546Z,5.53
2023-10-09T21:44:29.097Z,5.57
2023-10-09T21:47:59.540Z,5.18
2023-10-09T21:51:28.322Z,5.85
2023-10-09T21:54:54.288Z,5.35
2023-10-09T21:58:23.449Z,4.75
2023-10-09T22:01:54.422Z,5.93
2023-10-09T22:05:26.622Z,5.50
2023-10-09T22:08:53.048Z,5.55
2023-10-09T22:12:19.385Z,4.47
2023-10-09T22:15:47.021Z,4.32
2023-10-09T22:19:14.969Z,4.65
2023-10-09T22:22:45.532Z,4.65
2023-10-09T22:26:15.959Z,5.70
2023-10-09T22:29:43.464Z,5.45
2023-10-09T22:33:13.597Z,5.05
2023-10-09T22:36:54.004Z,5.50
2023-10-09T22:40:27.732Z,5.30
2023-10-09T22:43:54.516Z,5.18
2023-10-09T22:47:24.327Z,5.03
2023-10-09T22:50:59.895Z,7.40
2023-10-09T22:54:36.194Z,5.05
2023-10-09T22:58:11.226Z,4.68
2023-10-09T23:01:45.894Z,5.72
2023-10-09T23:05:14.141Z,6.63
2023-10-09T23:08:40.276Z,5.00
2023-10-09T23:12:08.809Z,5.05
2023-10-09T23:15:41.461Z,7.10
2023-10-09T23:19:33.264Z,5.75
2023-10-09T23:22:59.826Z,6.30
2023-10-09T23:26:34.867Z,7.18
2023-10-09T23:30:08.462Z,6.45
2023-10-09T23:33:36.904Z,6.82
2023-10-09T23:37:03.902Z,6.88
2023-10-09T23:40:41.175Z,7.60
2023-10-09T23:44:08.762Z,5.70
2023-10-09T23:47:35.027Z,5.70
2023-10-09T23:51:05.225Z,6.50
2023-10-09T23:54:31.064Z,5.35
2023-10-09T23:57:59.960Z,5.22
